sensor_id;sensor_type;location;lat;lon;timestamp;pressure;altitude;pressure_sealevel;temperature;humidity
46782;BME280;32541;46.298;11.506;2022-11-04T00:01:37;88832.38;;;8.71;100.00
46782;BME280;32541;46.298;11.506;2022-11-04T00:04:03;88836.91;;;8.67;100.00
46782;BME280;32541;46.298;11.506;2022-11-04T00:06:29;88835.44;;;8.66;100.00
46782;BME280;32541;46.298;11.506;2022-11-04T00:08:56;88824.47;;;8.66;100.00
46782;BME280;32541;46.298;11.506;2022-11-04T00:11:22;88820.91;;;8.63;100.00
46782;BME280;32541;46.298;11.506;2022-11-04T00:14:07;88819.66;;;8.55;100.00
46782;BME280;32541;46.298;11.506;2022-11-04T00:16:34;88827.16;;;8.54;100.00
46782;BME280;32541;46.298;11.506;2022-11-04T00:19:18;88827.41;;;8.58;100.00
46782;BME280;32541;46.298;11.506;2022-11-04T00:21:43;88824.66;;;8.58;100.00
46782;BME280;32541;46.298;11.506;2022-11-04T00:24:27;88821.91;;;8.58;100.00
46782;BME280;32541;46.298;11.506;2022-11-04T00:27:16;88816.44;;;8.58;100.00
46782;BME280;32541;46.298;11.506;2022-11-04T00:30:00;88818.00;;;8.61;100.00
46782;BME280;32541;46.298;11.506;2022-11-04T00:32:25;88811.22;;;8.62;100.00
46782;BME280;32541;46.298;11.506;2022-11-04T00:35:10;88798.69;;;8.59;100.00
46782;BME280;32541;46.298;11.506;2022-11-04T00:37:37;88806.59;;;8.65;100.00
46782;BME280;32541;46.298;11.506;2022-11-04T00:40:03;88797.59;;;8.74;100.00
46782;BME280;32541;46.298;11.506;2022-11-04T00:42:29;88792.44;;;8.68;100.00
46782;BME280;32541;46.298;11.506;2022-11-04T00:44:54;88789.44;;;8.64;100.00
46782;BME280;32541;46.298;11.506;2022-11-04T00:47:19;88782.09;;;8.67;100.00
46782;BME280;32541;46.298;11.506;2022-11-04T00:49:45;88772.88;;;8.62;100.00
46782;BME280;32541;46.298;11.506;2022-11-04T00:52:10;88764.63;;;8.62;100.00
46782;BME280;32541;46.298;11.506;2022-11-04T00:54:36;88767.97;;;8.61;100.00
46782;BME280;32541;46.298;11.506;2022-11-04T00:57:01;88766.53;;;8.60;100.00
46782;BME280;32541;46.298;11.506;2022-11-04T00:59:26;88756.28;;;8.60;100.00
46782;BME280;32541;46.298;11.506;2022-11-04T01:01:52;88751.53;;;8.61;100.00
46782;BME280;32541;46.298;11.506;2022-11-04T01:04:17;88750.16;;;8.50;100.00
46782;BME280;32541;46.298;11.506;2022-11-04T01:06:43;88741.53;;;8.44;100.00
46782;BME280;32541;46.298;11.506;2022-11-04T01:09:11;88735.41;;;8.34;100.00
46782;BME280;32541;46.298;11.506;2022-11-04T01:11:36;88724.69;;;8.38;100.00
46782;BME280;32541;46.298;11.506;2022-11-04T01:14:02;88711.16;;;8.40;100.00
46782;BME280;32541;46.298;11.506;2022-11-04T01:16:29;88709.72;;;8.39;100.00
46782;BME280;32541;46.298;11.506;2022-11-04T01:18:54;88707.53;;;8.37;100.00
46782;BME280;32541;46.298;11.506;2022-11-04T01:21:20;88702.94;;;8.40;100.00
46782;BME280;32541;46.298;11.506;2022-11-04T01:23:46;88694.38;;;8.46;100.00
46782;BME280;32541;46.298;11.506;2022-11-04T01:26:17;88687.41;;;8.54;100.00
46782;BME280;32541;46.298;11.506;2022-11-04T01:28:45;88685.78;;;8.61;100.00
46782;BME280;32541;46.298;11.506;2022-11-04T01:31:20;88683.03;;;8.40;100.00
46782;BME280;32541;46.298;11.506;2022-11-04T01:33:46;88672.16;;;8.30;100.00
46782;BME280;32541;46.298;11.506;2022-11-04T01:36:12;88650.75;;;8.38;100.00
46782;BME280;32541;46.298;11.506;2022-11-04T01:38:38;88651.19;;;8.34;100.00
46782;BME280;32541;46.298;11.506;2022-11-04T01:41:04;88649.84;;;8.45;100.00
46782;BME280;32541;46.298;11.506;2022-11-04T01:43:50;88652.13;;;8.49;100.00
46782;BME280;32541;46.298;11.506;2022-11-04T01:48:52;88638.09;;;8.33;100.00
46782;BME280;32541;46.298;11.506;2022-11-04T01:51:20;88626.47;;;8.23;100.00
46782;BME280;32541;46.298;11.506;2022-11-04T01:53:47;88616.94;;;8.24;100.00
46782;BME280;32541;46.298;11.506;2022-11-04T01:56:15;88614.09;;;8.22;100.00
46782;BME280;32541;46.298;11.506;2022-11-04T01:58:46;88611.69;;;8.16;100.00
46782;BME280;32541;46.298;11.506;2022-11-04T02:01:13;88602.53;;;8.23;100.00
46782;BME280;32541;46.298;11.506;2022-11-04T02:03:49;88594.19;;;8.21;100.00
46782;BME280;32541;46.298;11.506;2022-11-04T02:06:16;88587.03;;;8.16;100.00
46782;BME280;32541;46.298;11.506;2022-11-04T02:08:43;88587.69;;;7.84;100.00
46782;BME280;32541;46.298;11.506;2022-11-04T02:11:10;88583.91;;;7.89;100.00
46782;BME280;32541;46.298;11.506;2022-11-04T02:13:55;88574.66;;;7.94;100.00
46782;BME280;32541;46.298;11.506;2022-11-04T02:16:38;88570.22;;;8.10;100.00
46782;BME280;32541;46.298;11.506;2022-11-04T02:27:42;88525.69;;;8.10;100.00
46782;BME280;32541;46.298;11.506;2022-11-04T02:30:17;88520.63;;;7.95;100.00
46782;BME280;32541;46.298;11.506;2022-11-04T02:35:39;88508.97;;;7.94;100.00
46782;BME280;32541;46.298;11.506;2022-11-04T02:38:20;88507.41;;;7.91;100.00
46782;BME280;32541;46.298;11.506;2022-11-04T02:43:29;88506.56;;;7.89;100.00
46782;BME280;32541;46.298;11.506;2022-11-04T02:51:17;88471.47;;;7.97;100.00
46782;BME280;32541;46.298;11.506;2022-11-04T02:53:51;88477.09;;;7.99;100.00
46782;BME280;32541;46.298;11.506;2022-11-04T02:56:23;88472.66;;;7.94;100.00
46782;BME280;32541;46.298;11.506;2022-11-04T02:58:57;88463.94;;;7.86;100.00
46782;BME280;32541;46.298;11.506;2022-11-04T03:01:28;88449.66;;;7.87;100.00
46782;BME280;32541;46.298;11.506;2022-11-04T03:04:00;88457.94;;;7.99;100.00
46782;BME280;32541;46.298;11.506;2022-11-04T03:06:29;88452.09;;;7.93;100.00
46782;BME280;32541;46.298;11.506;2022-11-04T03:08:56;88434.31;;;7.82;100.00
46782;BME280;32541;46.298;11.506;2022-11-04T03:11:24;88434.84;;;8.02;100.00
46782;BME280;32541;46.298;11.506;2022-11-04T03:14:07;88435.53;;;7.91;100.00
46782;BME280;32541;46.298;11.506;2022-11-04T03:16:56;88439.31;;;7.86;100.00
46782;BME280;32541;46.298;11.506;2022-11-04T03:19:48;88428.72;;;7.80;100.00
46782;BME280;32541;46.298;11.506;2022-11-04T03:22:23;88408.00;;;7.77;100.00
46782;BME280;32541;46.298;11.506;2022-11-04T03:24:49;88410.63;;;7.75;100.00
46782;BME280;32541;46.298;11.506;2022-11-04T03:32:38;88399.91;;;7.79;100.00
46782;BME280;32541;46.298;11.506;2022-11-04T03:35:05;88390.59;;;7.72;100.00
46782;BME280;32541;46.298;11.506;2022-11-04T03:37:32;88385.75;;;7.82;100.00
46782;BME280;32541;46.298;11.506;2022-11-04T03:39:57;88381.94;;;7.76;100.00
46782;BME280;32541;46.298;11.506;2022-11-04T03:42:24;88370.88;;;7.74;100.00
46782;BME280;32541;46.298;11.506;2022-11-04T03:44:53;88364.03;;;7.63;100.00
46782;BME280;32541;46.298;11.506;2022-11-04T03:47:22;88366.25;;;7.76;100.00
46782;BME280;32541;46.298;11.506;2022-11-04T03:49:50;88354.47;;;7.74;100.00
46782;BME280;32541;46.298;11.506;2022-11-04T03:52:16;88340.31;;;7.77;100.00
46782;BME280;32541;46.298;11.506;2022-11-04T03:54:43;88345.19;;;7.79;100.00
46782;BME280;32541;46.298;11.506;2022-11-04T04:00:15;88328.16;;;7.69;100.00
46782;BME280;32541;46.298;11.506;2022-11-04T04:08:18;88315.88;;;7.58;100.00
46782;BME280;32541;46.298;11.506;2022-11-04T04:13:58;88283.50;;;7.55;100.00
46782;BME280;32541;46.298;11.506;2022-11-04T04:16:36;88281.75;;;7.59;100.00
46782;BME280;32541;46.298;11.506;2022-11-04T04:19:08;88282.09;;;7.54;100.00
46782;BME280;32541;46.298;11.506;2022-11-04T04:21:41;88288.53;;;7.58;100.00
46782;BME280;32541;46.298;11.506;2022-11-04T04:24:11;88279.81;;;7.50;100.00
46782;BME280;32541;46.298;11.506;2022-11-04T04:26:59;88290.88;;;7.52;100.00
46782;BME280;32541;46.298;11.506;2022-11-04T04:29:44;88289.63;;;7.76;100.00
46782;BME280;32541;46.298;11.506;2022-11-04T04:32:12;88278.56;;;7.63;100.00
46782;BME280;32541;46.298;11.506;2022-11-04T04:34:38;88277.47;;;7.56;100.00
46782;BME280;32541;46.298;11.506;2022-11-04T04:37:06;88275.56;;;7.59;100.00
46782;BME280;32541;46.298;11.506;2022-11-04T04:39:48;88261.75;;;7.45;100.00
46782;BME280;32541;46.298;11.506;2022-11-04T04:42:33;88267.69;;;7.42;100.00
46782;BME280;32541;46.298;11.506;2022-11-04T04:45:22;88266.97;;;7.41;100.00
46782;BME280;32541;46.298;11.506;2022-11-04T04:47:50;88262.69;;;7.38;100.00
46782;BME280;32541;46.298;11.506;2022-11-04T04:50:17;88256.84;;;7.32;100.00
46782;BME280;32541;46.298;11.506;2022-11-04T04:52:45;88234.34;;;7.34;100.00
46782;BME280;32541;46.298;11.506;2022-11-04T04:55:12;88216.44;;;7.42;100.00
46782;BME280;32541;46.298;11.506;2022-11-04T04:57:38;88200.50;;;7.50;100.00
46782;BME280;32541;46.298;11.506;2022-11-04T05:00:08;88216.66;;;7.35;100.00
46782;BME280;32541;46.298;11.506;2022-11-04T05:02:34;88228.50;;;7.16;100.00
46782;BME280;32541;46.298;11.506;2022-11-04T05:05:00;88264.94;;;6.97;100.00
46782;BME280;32541;46.298;11.506;2022-11-04T05:07:25;88277.69;;;7.16;100.00
46782;BME280;32541;46.298;11.506;2022-11-04T05:09:51;88285.59;;;7.21;100.00
46782;BME280;32541;46.298;11.506;2022-11-04T05:12:16;88266.59;;;7.02;100.00
46782;BME280;32541;46.298;11.506;2022-11-04T05:14:42;88280.34;;;6.93;100.00
46782;BME280;32541;46.298;11.506;2022-11-04T05:17:07;88272.41;;;6.97;100.00
46782;BME280;32541;46.298;11.506;2022-11-04T05:19:33;88275.25;;;6.99;100.00
46782;BME280;32541;46.298;11.506;2022-11-04T05:21:58;88256.41;;;7.03;100.00
46782;BME280;32541;46.298;11.506;2022-11-04T05:24:24;88237.00;;;6.99;100.00
46782;BME280;32541;46.298;11.506;2022-11-04T05:26:49;88237.25;;;7.03;100.00
46782;BME280;32541;46.298;11.506;2022-11-04T05:29:15;88236.56;;;7.14;100.00
46782;BME280;32541;46.298;11.506;2022-11-04T05:31:40;88243.75;;;6.98;100.00
46782;BME280;32541;46.298;11.506;2022-11-04T05:34:05;88243.69;;;7.07;100.00
46782;BME280;32541;46.298;11.506;2022-11-04T05:36:31;88259.03;;;7.12;100.00
46782;BME280;32541;46.298;11.506;2022-11-04T05:38:59;88277.75;;;6.95;100.00
46782;BME280;32541;46.298;11.506;2022-11-04T05:41:25;88268.63;;;7.02;100.00
46782;BME280;32541;46.298;11.506;2022-11-04T05:43:54;88256.63;;;7.07;100.00
46782;BME280;32541;46.298;11.506;2022-11-04T05:46:21;88257.97;;;7.17;100.00
46782;BME280;32541;46.298;11.506;2022-11-04T05:48:46;88267.41;;;7.26;100.00
46782;BME280;32541;46.298;11.506;2022-11-04T05:51:18;88262.50;;;7.24;100.00
46782;BME280;32541;46.298;11.506;2022-11-04T05:53:44;88247.31;;;7.21;100.00
46782;BME280;32541;46.298;11.506;2022-11-04T05:56:09;88229.00;;;7.24;100.00
46782;BME280;32541;46.298;11.506;2022-11-04T05:58:35;88223.06;;;7.27;100.00
46782;BME280;32541;46.298;11.506;2022-11-04T06:01:23;88237.56;;;7.30;100.00
46782;BME280;32541;46.298;11.506;2022-11-04T06:03:49;88243.53;;;7.38;100.00
46782;BME280;32541;46.298;11.506;2022-11-04T06:06:14;88239.88;;;7.45;100.00
46782;BME280;32541;46.298;11.506;2022-11-04T06:08:40;88232.44;;;7.24;100.00
46782;BME280;32541;46.298;11.506;2022-11-04T06:11:05;88222.09;;;7.23;100.00
46782;BME280;32541;46.298;11.506;2022-11-04T06:13:30;88211.66;;;7.43;100.00
46782;BME280;32541;46.298;11.506;2022-11-04T06:15:56;88202.16;;;7.32;100.00
46782;BME280;32541;46.298;11.506;2022-11-04T06:18:21;88200.47;;;7.15;100.00
46782;BME280;32541;46.298;11.506;2022-11-04T06:20:47;88191.28;;;7.11;100.00
46782;BME280;32541;46.298;11.506;2022-11-04T06:23:12;88197.63;;;7.25;100.00
46782;BME280;32541;46.298;11.506;2022-11-04T06:25:37;88185.84;;;7.34;100.00
46782;BME280;32541;46.298;11.506;2022-11-04T06:28:03;88184.56;;;7.35;100.00
46782;BME280;32541;46.298;11.506;2022-11-04T06:30:28;88187.28;;;7.35;100.00
46782;BME280;32541;46.298;11.506;2022-11-04T06:32:54;88184.81;;;7.39;100.00
46782;BME280;32541;46.298;11.506;2022-11-04T06:35:19;88201.22;;;7.39;100.00
46782;BME280;32541;46.298;11.506;2022-11-04T06:37:45;88213.19;;;7.34;100.00
46782;BME280;32541;46.298;11.506;2022-11-04T06:40:11;88209.28;;;7.49;100.00
46782;BME280;32541;46.298;11.506;2022-11-04T06:42:37;88206.31;;;7.33;100.00
46782;BME280;32541;46.298;11.506;2022-11-04T06:45:03;88208.09;;;7.28;100.00
46782;BME280;32541;46.298;11.506;2022-11-04T06:47:29;88209.06;;;7.33;100.00
46782;BME280;32541;46.298;11.506;2022-11-04T06:49:54;88216.88;;;7.27;100.00
46782;BME280;32541;46.298;11.506;2022-11-04T06:52:19;88217.31;;;7.12;100.00
46782;BME280;32541;46.298;11.506;2022-11-04T06:54:45;88232.25;;;6.99;100.00
46782;BME280;32541;46.298;11.506;2022-11-04T06:57:12;88220.59;;;6.99;100.00
46782;BME280;32541;46.298;11.506;2022-11-04T06:59:37;88214.31;;;6.96;100.00
46782;BME280;32541;46.298;11.506;2022-11-04T07:02:03;88222.59;;;6.87;100.00
46782;BME280;32541;46.298;11.506;2022-11-04T07:04:28;88214.03;;;6.92;100.00
46782;BME280;32541;46.298;11.506;2022-11-04T07:06:53;88226.50;;;6.84;100.00
46782;BME280;32541;46.298;11.506;2022-11-04T07:09:19;88235.47;;;6.75;100.00
46782;BME280;32541;46.298;11.506;2022-11-04T07:11:44;88229.41;;;6.43;100.00
46782;BME280;32541;46.298;11.506;2022-11-04T07:14:10;88236.63;;;6.39;100.00
46782;BME280;32541;46.298;11.506;2022-11-04T07:16:36;88265.84;;;6.27;100.00
46782;BME280;32541;46.298;11.506;2022-11-04T07:19:02;88254.88;;;5.94;100.00
46782;BME280;32541;46.298;11.506;2022-11-04T07:21:27;88251.88;;;5.80;100.00
46782;BME280;32541;46.298;11.506;2022-11-04T07:23:53;88253.75;;;5.78;100.00
46782;BME280;32541;46.298;11.506;2022-11-04T07:26:18;88254.03;;;5.82;100.00
46782;BME280;32541;46.298;11.506;2022-11-04T07:28:44;88266.53;;;5.75;100.00
46782;BME280;32541;46.298;11.506;2022-11-04T07:31:11;88258.53;;;5.68;100.00
46782;BME280;32541;46.298;11.506;2022-11-04T07:33:37;88261.94;;;5.78;100.00
46782;BME280;32541;46.298;11.506;2022-11-04T07:36:04;88266.66;;;5.87;100.00
46782;BME280;32541;46.298;11.506;2022-11-04T07:38:30;88257.31;;;5.90;100.00
46782;BME280;32541;46.298;11.506;2022-11-04T07:40:56;88263.38;;;5.79;100.00
46782;BME280;32541;46.298;11.506;2022-11-04T07:43:22;88264.25;;;5.72;100.00
46782;BME280;32541;46.298;11.506;2022-11-04T07:45:58;88262.53;;;5.26;100.00
46782;BME280;32541;46.298;11.506;2022-11-04T07:48:23;88263.88;;;5.06;100.00
46782;BME280;32541;46.298;11.506;2022-11-04T07:50:49;88253.59;;;4.95;100.00
46782;BME280;32541;46.298;11.506;2022-11-04T07:53:14;88270.34;;;4.82;100.00
46782;BME280;32541;46.298;11.506;2022-11-04T07:55:40;88263.78;;;4.56;100.00
46782;BME280;32541;46.298;11.506;2022-11-04T07:58:05;88273.53;;;4.59;100.00
46782;BME280;32541;46.298;11.506;2022-11-04T08:00:33;88278.09;;;4.66;100.00
46782;BME280;32541;46.298;11.506;2022-11-04T08:02:59;88281.97;;;4.34;100.00
46782;BME280;32541;46.298;11.506;2022-11-04T08:05:24;88263.34;;;4.40;100.00
46782;BME280;32541;46.298;11.506;2022-11-04T08:07:50;88262.22;;;4.24;100.00
46782;BME280;32541;46.298;11.506;2022-11-04T08:10:15;88290.09;;;4.06;100.00
46782;BME280;32541;46.298;11.506;2022-11-04T08:12:40;88289.66;;;4.09;100.00
46782;BME280;32541;46.298;11.506;2022-11-04T08:15:06;88314.44;;;4.13;100.00
46782;BME280;32541;46.298;11.506;2022-11-04T08:17:31;88318.47;;;4.12;100.00
46782;BME280;32541;46.298;11.506;2022-11-04T08:19:57;88337.53;;;4.31;100.00
46782;BME280;32541;46.298;11.506;2022-11-04T08:22:22;88357.44;;;4.24;100.00
46782;BME280;32541;46.298;11.506;2022-11-04T08:24:48;88347.75;;;4.04;100.00
46782;BME280;32541;46.298;11.506;2022-11-04T08:27:13;88353.81;;;4.12;100.00
46782;BME280;32541;46.298;11.506;2022-11-04T08:29:39;88351.28;;;3.87;100.00
46782;BME280;32541;46.298;11.506;2022-11-04T08:32:06;88360.19;;;3.88;100.00
46782;BME280;32541;46.298;11.506;2022-11-04T08:34:31;88362.75;;;3.86;100.00
46782;BME280;32541;46.298;11.506;2022-11-04T08:36:57;88367.19;;;3.91;100.00
46782;BME280;32541;46.298;11.506;2022-11-04T08:39:24;88367.41;;;3.76;100.00
46782;BME280;32541;46.298;11.506;2022-11-04T08:41:49;88383.34;;;3.89;100.00
46782;BME280;32541;46.298;11.506;2022-11-04T08:44:17;88372.84;;;3.76;100.00
46782;BME280;32541;46.298;11.506;2022-11-04T08:46:44;88375.88;;;3.80;100.00
46782;BME280;32541;46.298;11.506;2022-11-04T08:49:10;88356.03;;;3.60;97.62
46782;BME280;32541;46.298;11.506;2022-11-04T08:51:38;88345.66;;;3.76;100.00
46782;BME280;32541;46.298;11.506;2022-11-04T08:54:05;88353.75;;;3.93;100.00
46782;BME280;32541;46.298;11.506;2022-11-04T08:56:33;88344.31;;;3.94;100.00
46782;BME280;32541;46.298;11.506;2022-11-04T08:58:59;88357.72;;;3.82;99.70
46782;BME280;32541;46.298;11.506;2022-11-04T09:01:27;88375.03;;;3.87;100.00
46782;BME280;32541;46.298;11.506;2022-11-04T09:03:53;88373.31;;;3.82;100.00
46782;BME280;32541;46.298;11.506;2022-11-04T09:06:28;88379.50;;;3.92;100.00
46782;BME280;32541;46.298;11.506;2022-11-04T09:08:54;88385.56;;;4.00;100.00
46782;BME280;32541;46.298;11.506;2022-11-04T09:11:22;88380.75;;;3.81;100.00
46782;BME280;32541;46.298;11.506;2022-11-04T09:13:47;88385.59;;;3.73;100.00
46782;BME280;32541;46.298;11.506;2022-11-04T09:16:14;88399.31;;;3.75;100.00
46782;BME280;32541;46.298;11.506;2022-11-04T09:18:39;88394.06;;;3.87;100.00
46782;BME280;32541;46.298;11.506;2022-11-04T09:21:06;88401.16;;;3.73;100.00
46782;BME280;32541;46.298;11.506;2022-11-04T09:23:32;88406.75;;;3.75;100.00
46782;BME280;32541;46.298;11.506;2022-11-04T09:26:07;88419.94;;;3.78;100.00
46782;BME280;32541;46.298;11.506;2022-11-04T09:28:32;88418.81;;;3.81;100.00
46782;BME280;32541;46.298;11.506;2022-11-04T09:30:58;88408.84;;;3.93;100.00
46782;BME280;32541;46.298;11.506;2022-11-04T09:33:23;88405.81;;;3.89;100.00
46782;BME280;32541;46.298;11.506;2022-11-04T09:35:56;88428.75;;;3.96;100.00
46782;BME280;32541;46.298;11.506;2022-11-04T09:38:22;88442.09;;;3.75;100.00
46782;BME280;32541;46.298;11.506;2022-11-04T09:40:48;88450.81;;;3.73;100.00
46782;BME280;32541;46.298;11.506;2022-11-04T09:43:37;88461.50;;;3.45;100.00
46782;BME280;32541;46.298;11.506;2022-11-04T09:46:07;88462.00;;;3.33;100.00
46782;BME280;32541;46.298;11.506;2022-11-04T09:48:45;88451.69;;;3.15;100.00
46782;BME280;32541;46.298;11.506;2022-11-04T09:51:12;88424.72;;;3.17;100.00
46782;BME280;32541;46.298;11.506;2022-11-04T09:56:18;88389.94;;;3.15;100.00
46782;BME280;32541;46.298;11.506;2022-11-04T09:58:45;88369.53;;;3.14;100.00
46782;BME280;32541;46.298;11.506;2022-11-04T10:03:58;88351.69;;;3.21;100.00
46782;BME280;32541;46.298;11.506;2022-11-04T10:23:36;88386.31;;;3.83;100.00
46782;BME280;32541;46.298;11.506;2022-11-04T10:26:59;88389.50;;;3.89;100.00
46782;BME280;32541;46.298;11.506;2022-11-04T10:29:07;88393.84;;;4.02;100.00
46782;BME280;32541;46.298;11.506;2022-11-04T10:31:37;88386.75;;;4.16;100.00
46782;BME280;32541;46.298;11.506;2022-11-04T10:34:07;88389.63;;;4.28;100.00
46782;BME280;32541;46.298;11.506;2022-11-04T10:36:36;88380.50;;;4.42;98.04
46782;BME280;32541;46.298;11.506;2022-11-04T10:39:09;88384.28;;;4.57;96.06
46782;BME280;32541;46.298;11.506;2022-11-04T10:41:38;88381.00;;;4.77;95.09
46782;BME280;32541;46.298;11.506;2022-11-04T10:44:22;88364.53;;;4.85;95.69
46782;BME280;32541;46.298;11.506;2022-11-04T10:52:05;88343.44;;;5.33;95.46
46782;BME280;32541;46.298;11.506;2022-11-04T10:54:38;88338.09;;;5.54;93.95
46782;BME280;32541;46.298;11.506;2022-11-04T10:57:04;88341.88;;;4.92;92.05
46782;BME280;32541;46.298;11.506;2022-11-04T11:02:01;88354.06;;;4.91;92.01
46782;BME280;32541;46.298;11.506;2022-11-04T11:04:32;88362.53;;;5.04;94.34
46782;BME280;32541;46.298;11.506;2022-11-04T11:07:00;88358.22;;;5.30;95.85
46782;BME280;32541;46.298;11.506;2022-11-04T11:09:34;88357.06;;;5.14;96.40
46782;BME280;32541;46.298;11.506;2022-11-04T11:12:03;88356.06;;;5.19;95.88
46782;BME280;32541;46.298;11.506;2022-11-04T11:14:36;88350.03;;;5.40;97.25
46782;BME280;32541;46.298;11.506;2022-11-04T11:20:00;88347.31;;;5.11;92.83
46782;BME280;32541;46.298;11.506;2022-11-04T11:22:37;88345.59;;;5.06;97.15
46782;BME280;32541;46.298;11.506;2022-11-04T11:25:24;88324.25;;;4.93;97.92
46782;BME280;32541;46.298;11.506;2022-11-04T11:30:25;88310.78;;;4.85;98.21
46782;BME280;32541;46.298;11.506;2022-11-04T11:33:04;88317.09;;;4.88;100.00
46782;BME280;32541;46.298;11.506;2022-11-04T11:35:36;88323.97;;;4.51;100.00
46782;BME280;32541;46.298;11.506;2022-11-04T11:38:30;88318.78;;;4.55;100.00
46782;BME280;32541;46.298;11.506;2022-11-04T11:41:22;88314.78;;;4.56;100.00
46782;BME280;32541;46.298;11.506;2022-11-04T11:43:58;88323.66;;;4.56;100.00
46782;BME280;32541;46.298;11.506;2022-11-04T11:46:26;88337.72;;;4.62;100.00
46782;BME280;32541;46.298;11.506;2022-11-04T11:48:54;88332.72;;;4.97;100.00
46782;BME280;32541;46.298;11.506;2022-11-04T11:51:36;88335.25;;;5.43;100.00
46782;BME280;32541;46.298;11.506;2022-11-04T11:54:22;88334.66;;;5.35;100.00
46782;BME280;32541;46.298;11.506;2022-11-04T11:56:56;88335.94;;;5.43;100.00
46782;BME280;32541;46.298;11.506;2022-11-04T11:59:26;88356.78;;;5.10;100.00
46782;BME280;32541;46.298;11.506;2022-11-04T12:04:40;88348.00;;;6.00;99.79
46782;BME280;32541;46.298;11.506;2022-11-04T12:07:21;88350.03;;;6.30;98.27
46782;BME280;32541;46.298;11.506;2022-11-04T12:15:42;88342.75;;;6.23;88.09
46782;BME280;32541;46.298;11.506;2022-11-04T12:21:12;88345.28;;;6.61;86.83
46782;BME280;32541;46.298;11.506;2022-11-04T12:35:00;88352.34;;;5.84;87.05
46782;BME280;32541;46.298;11.506;2022-11-04T12:48:09;88362.09;;;7.87;77.16
46782;BME280;32541;46.298;11.506;2022-11-04T12:50:53;88353.09;;;7.31;80.32
46782;BME280;32541;46.298;11.506;2022-11-04T12:56:36;88355.56;;;7.80;80.20
46782;BME280;32541;46.298;11.506;2022-11-04T13:01:40;88354.16;;;8.14;78.30
46782;BME280;32541;46.298;11.506;2022-11-04T13:04:13;88348.09;;;8.16;80.37
46782;BME280;32541;46.298;11.506;2022-11-04T13:06:42;88342.53;;;8.83;76.13
46782;BME280;32541;46.298;11.506;2022-11-04T13:09:17;88335.38;;;9.27;76.83
46782;BME280;32541;46.298;11.506;2022-11-04T13:11:52;88343.09;;;8.24;72.15
46782;BME280;32541;46.298;11.506;2022-11-04T13:14:23;88345.06;;;8.45;77.05
46782;BME280;32541;46.298;11.506;2022-11-04T13:16:55;88350.13;;;9.08;76.03
46782;BME280;32541;46.298;11.506;2022-11-04T13:19:50;88354.72;;;9.54;71.90
46782;BME280;32541;46.298;11.506;2022-11-04T13:22:21;88361.47;;;8.33;72.42
46782;BME280;32541;46.298;11.506;2022-11-04T13:24:53;88363.63;;;7.78;79.72
46782;BME280;32541;46.298;11.506;2022-11-04T13:27:26;88355.41;;;7.78;76.42
46782;BME280;32541;46.298;11.506;2022-11-04T13:30:22;88352.91;;;8.62;76.44
46782;BME280;32541;46.298;11.506;2022-11-04T13:33:10;88341.13;;;9.19;74.18
46782;BME280;32541;46.298;11.506;2022-11-04T13:38:22;88347.94;;;9.55;69.19
46782;BME280;32541;46.298;11.506;2022-11-04T13:43:38;88344.66;;;10.21;67.25
46782;BME280;32541;46.298;11.506;2022-11-04T13:48:33;88342.41;;;10.17;68.82
46782;BME280;32541;46.298;11.506;2022-11-04T13:51:08;88339.47;;;10.01;69.84
46782;BME280;32541;46.298;11.506;2022-11-04T13:53:43;88335.41;;;10.28;69.21
46782;BME280;32541;46.298;11.506;2022-11-04T13:56:26;88330.44;;;10.51;69.09
46782;BME280;32541;46.298;11.506;2022-11-04T13:58:54;88327.84;;;10.94;66.63
46782;BME280;32541;46.298;11.506;2022-11-04T14:14:50;88331.38;;;11.24;66.18
46782;BME280;32541;46.298;11.506;2022-11-04T14:22:36;88334.56;;;11.61;62.27
46782;BME280;32541;46.298;11.506;2022-11-04T14:25:28;88336.63;;;11.61;62.08
46782;BME280;32541;46.298;11.506;2022-11-04T14:30:45;88347.69;;;11.34;62.82
46782;BME280;32541;46.298;11.506;2022-11-04T14:35:54;88372.25;;;11.02;64.65
46782;BME280;32541;46.298;11.506;2022-11-04T14:38:27;88376.03;;;10.95;65.81
46782;BME280;32541;46.298;11.506;2022-11-04T14:43:41;88396.13;;;10.59;65.21
46782;BME280;32541;46.298;11.506;2022-11-04T14:46:08;88411.38;;;10.48;65.79
46782;BME280;32541;46.298;11.506;2022-11-04T14:48:35;88409.25;;;10.22;66.27
46782;BME280;32541;46.298;11.506;2022-11-04T14:51:00;88423.28;;;10.02;68.29
46782;BME280;32541;46.298;11.506;2022-11-04T14:53:35;88415.31;;;9.95;70.57
46782;BME280;32541;46.298;11.506;2022-11-04T14:56:21;88421.09;;;9.87;69.83
46782;BME280;32541;46.298;11.506;2022-11-04T15:01:25;88414.75;;;9.48;70.47
46782;BME280;32541;46.298;11.506;2022-11-04T15:03:52;88407.19;;;9.12;68.08
46782;BME280;32541;46.298;11.506;2022-11-04T15:06:26;88417.81;;;8.59;66.22
46782;BME280;32541;46.298;11.506;2022-11-04T15:08:52;88413.25;;;8.29;68.49
46782;BME280;32541;46.298;11.506;2022-11-04T15:11:27;88412.63;;;8.07;65.73
46782;BME280;32541;46.298;11.506;2022-11-04T15:16:39;88400.41;;;7.54;67.44
46782;BME280;32541;46.298;11.506;2022-11-04T15:19:07;88408.28;;;7.27;69.43
46782;BME280;32541;46.298;11.506;2022-11-04T15:21:38;88396.00;;;7.07;69.76
46782;BME280;32541;46.298;11.506;2022-11-04T15:24:04;88400.53;;;7.02;70.37
46782;BME280;32541;46.298;11.506;2022-11-04T15:26:32;88406.88;;;6.95;69.00
46782;BME280;32541;46.298;11.506;2022-11-04T15:29:00;88406.38;;;6.87;68.56
46782;BME280;32541;46.298;11.506;2022-11-04T15:31:30;88410.94;;;6.94;70.02
46782;BME280;32541;46.298;11.506;2022-11-04T15:33:58;88404.13;;;6.74;73.83
46782;BME280;32541;46.298;11.506;2022-11-04T15:36:30;88413.78;;;6.44;71.63
46782;BME280;32541;46.298;11.506;2022-11-04T15:39:06;88415.81;;;5.94;80.44
46782;BME280;32541;46.298;11.506;2022-11-04T15:41:33;88411.22;;;5.96;80.19